sensor_id;sensor_type;location;lat;lon;timestamp;P1;durP1;ratioP1;P2;durP2;ratioP2
62798;SDS011;48842;51.046;13.796;2023-06-01T00:02:08;9.70;;;3.50;;
62798;SDS011;48842;51.046;13.796;2023-06-01T00:04:33;3.77;;;3.47;;
62798;SDS011;48842;51.046;13.796;2023-06-01T00:06:59;9.50;;;3.90;;
62798;SDS011;48842;51.046;13.796;2023-06-01T00:09:26;10.23;;;3.67;;
62798;SDS011;48842;51.046;13.796;2023-06-01T00:11:51;12.57;;;4.70;;
62798;SDS011;48842;51.046;13.796;2023-06-01T00:14:17;7.80;;;4.20;;
62798;SDS011;48842;51.046;13.796;2023-06-01T00:16:43;7.47;;;3.40;;
62798;SDS011;48842;51.046;13.796;2023-06-01T00:19:10;4.50;;;4.10;;
62798;SDS011;48842;51.046;13.796;2023-06-01T00:21:36;6.13;;;3.73;;
62798;SDS011;48842;51.046;13.796;2023-06-01T00:24:01;9.27;;;3.80;;
62798;SDS011;48842;51.046;13.796;2023-06-01T00:26:27;4.30;;;3.70;;
62798;SDS011;48842;51.046;13.796;2023-06-01T00:28:54;5.50;;;3.70;;
62798;SDS011;48842;51.046;13.796;2023-06-01T00:31:20;6.77;;;4.07;;
62798;SDS011;48842;51.046;13.796;2023-06-01T00:33:45;4.67;;;3.90;;
62798;SDS011;48842;51.046;13.796;2023-06-01T00:36:10;4.93;;;3.43;;
62798;SDS011;48842;51.046;13.796;2023-06-01T00:38:35;7.13;;;4.00;;
62798;SDS011;48842;51.046;13.796;2023-06-01T00:41:01;6.20;;;4.63;;
62798;SDS011;48842;51.046;13.796;2023-06-01T00:43:26;4.67;;;3.60;;
62798;SDS011;48842;51.046;13.796;2023-06-01T00:45:51;6.33;;;3.47;;
62798;SDS011;48842;51.046;13.796;2023-06-01T00:48:17;5.00;;;3.43;;
62798;SDS011;48842;51.046;13.796;2023-06-01T00:50:43;5.93;;;3.87;;
62798;SDS011;48842;51.046;13.796;2023-06-01T00:53:11;7.27;;;3.93;;
62798;SDS011;48842;51.046;13.796;2023-06-01T00:55:42;3.90;;;3.50;;
62798;SDS011;48842;51.046;13.796;2023-06-01T00:58:08;4.70;;;3.13;;
62798;SDS011;48842;51.046;13.796;2023-06-01T01:00:33;4.33;;;3.60;;
62798;SDS011;48842;51.046;13.796;2023-06-01T01:02:59;4.43;;;3.80;;
62798;SDS011;48842;51.046;13.796;2023-06-01T01:05:32;5.03;;;3.63;;
62798;SDS011;48842;51.046;13.796;2023-06-01T01:10:54;3.63;;;3.07;;
62798;SDS011;48842;51.046;13.796;2023-06-01T01:13:23;4.00;;;3.63;;
62798;SDS011;48842;51.046;13.796;2023-06-01T01:16:03;4.23;;;3.77;;
62798;SDS011;48842;51.046;13.796;2023-06-01T01:18:54;9.87;;;4.20;;
62798;SDS011;48842;51.046;13.796;2023-06-01T01:21:26;6.63;;;3.50;;
62798;SDS011;48842;51.046;13.796;2023-06-01T01:29:49;8.20;;;4.20;;
62798;SDS011;48842;51.046;13.796;2023-06-01T01:32:17;6.50;;;3.73;;
62798;SDS011;48842;51.046;13.796;2023-06-01T01:34:45;6.40;;;3.50;;
62798;SDS011;48842;51.046;13.796;2023-06-01T01:37:13;6.20;;;4.10;;
62798;SDS011;48842;51.046;13.796;2023-06-01T01:39:38;6.73;;;3.77;;
62798;SDS011;48842;51.046;13.796;2023-06-01T01:42:03;6.27;;;3.77;;
62798;SDS011;48842;51.046;13.796;2023-06-01T01:44:29;6.67;;;4.30;;
62798;SDS011;48842;51.046;13.796;2023-06-01T01:46:58;8.20;;;4.50;;
62798;SDS011;48842;51.046;13.796;2023-06-01T01:49:35;5.23;;;3.33;;
62798;SDS011;48842;51.046;13.796;2023-06-01T01:52:18;6.07;;;4.03;;
62798;SDS011;48842;51.046;13.796;2023-06-01T01:54:50;6.60;;;3.73;;
62798;SDS011;48842;51.046;13.796;2023-06-01T01:57:16;4.27;;;3.73;;
62798;SDS011;48842;51.046;13.796;2023-06-01T01:59:43;7.33;;;3.83;;
62798;SDS011;48842;51.046;13.796;2023-06-01T02:02:10;5.90;;;3.90;;
62798;SDS011;48842;51.046;13.796;2023-06-01T02:04:39;4.07;;;3.67;;
62798;SDS011;48842;51.046;13.796;2023-06-01T02:07:05;7.20;;;3.30;;
62798;SDS011;48842;51.046;13.796;2023-06-01T02:09:31;6.40;;;3.97;;
62798;SDS011;48842;51.046;13.796;2023-06-01T02:11:57;9.53;;;4.17;;
62798;SDS011;48842;51.046;13.796;2023-06-01T02:14:22;4.43;;;3.40;;
62798;SDS011;48842;51.046;13.796;2023-06-01T02:16:47;10.67;;;4.00;;
62798;SDS011;48842;51.046;13.796;2023-06-01T02:19:12;5.97;;;3.90;;
62798;SDS011;48842;51.046;13.796;2023-06-01T02:21:40;8.70;;;4.47;;
62798;SDS011;48842;51.046;13.796;2023-06-01T02:24:06;4.67;;;4.20;;
62798;SDS011;48842;51.046;13.796;2023-06-01T02:26:33;4.80;;;3.77;;
62798;SDS011;48842;51.046;13.796;2023-06-01T02:28:59;5.27;;;3.60;;
62798;SDS011;48842;51.046;13.796;2023-06-01T02:31:24;5.33;;;4.23;;
62798;SDS011;48842;51.046;13.796;2023-06-01T02:33:50;6.80;;;3.80;;
62798;SDS011;48842;51.046;13.796;2023-06-01T02:36:15;4.00;;;3.60;;
62798;SDS011;48842;51.046;13.796;2023-06-01T02:38:41;6.53;;;3.70;;
62798;SDS011;48842;51.046;13.796;2023-06-01T02:41:07;4.83;;;3.80;;
62798;SDS011;48842;51.046;13.796;2023-06-01T02:43:33;11.97;;;3.90;;
62798;SDS011;48842;51.046;13.796;2023-06-01T02:46:00;4.43;;;3.67;;
62798;SDS011;48842;51.046;13.796;2023-06-01T02:48:25;8.13;;;4.13;;
62798;SDS011;48842;51.046;13.796;2023-06-01T02:50:50;7.23;;;4.03;;
62798;SDS011;48842;51.046;13.796;2023-06-01T02:53:16;4.00;;;3.60;;
62798;SDS011;48842;51.046;13.796;2023-06-01T02:55:41;7.67;;;4.37;;
62798;SDS011;48842;51.046;13.796;2023-06-01T02:58:06;8.80;;;3.80;;
62798;SDS011;48842;51.046;13.796;2023-06-01T03:00:37;4.37;;;3.93;;
62798;SDS011;48842;51.046;13.796;2023-06-01T03:03:02;6.73;;;4.10;;
62798;SDS011;48842;51.046;13.796;2023-06-01T03:05:28;5.50;;;4.30;;
62798;SDS011;48842;51.046;13.796;2023-06-01T03:07:54;5.43;;;3.57;;
62798;SDS011;48842;51.046;13.796;2023-06-01T03:10:20;3.67;;;3.37;;
62798;SDS011;48842;51.046;13.796;2023-06-01T03:12:45;4.67;;;4.27;;
62798;SDS011;48842;51.046;13.796;2023-06-01T03:15:10;5.67;;;3.77;;
62798;SDS011;48842;51.046;13.796;2023-06-01T03:17:36;5.50;;;4.00;;
62798;SDS011;48842;51.046;13.796;2023-06-01T03:20:01;5.40;;;4.57;;
62798;SDS011;48842;51.046;13.796;2023-06-01T03:22:29;8.77;;;4.90;;
62798;SDS011;48842;51.046;13.796;2023-06-01T03:24:54;12.07;;;4.07;;
62798;SDS011;48842;51.046;13.796;2023-06-01T03:27:19;6.70;;;4.17;;
62798;SDS011;48842;51.046;13.796;2023-06-01T03:29:47;6.23;;;4.20;;
62798;SDS011;48842;51.046;13.796;2023-06-01T03:32:13;5.23;;;3.70;;
62798;SDS011;48842;51.046;13.796;2023-06-01T03:34:38;6.00;;;4.13;;
62798;SDS011;48842;51.046;13.796;2023-06-01T03:37:05;5.67;;;3.90;;
62798;SDS011;48842;51.046;13.796;2023-06-01T03:39:32;10.37;;;4.73;;
62798;SDS011;48842;51.046;13.796;2023-06-01T03:41:58;4.23;;;3.90;;
62798;SDS011;48842;51.046;13.796;2023-06-01T03:44:24;5.10;;;4.23;;
62798;SDS011;48842;51.046;13.796;2023-06-01T03:46:49;4.90;;;4.30;;
62798;SDS011;48842;51.046;13.796;2023-06-01T03:49:15;12.60;;;4.30;;
62798;SDS011;48842;51.046;13.796;2023-06-01T03:51:40;5.80;;;3.40;;
62798;SDS011;48842;51.046;13.796;2023-06-01T03:54:05;11.50;;;4.97;;
62798;SDS011;48842;51.046;13.796;2023-06-01T03:56:30;5.63;;;4.07;;
62798;SDS011;48842;51.046;13.796;2023-06-01T03:58:56;4.63;;;4.20;;
62798;SDS011;48842;51.046;13.796;2023-06-01T04:01:21;6.17;;;4.00;;
62798;SDS011;48842;51.046;13.796;2023-06-01T04:03:47;7.33;;;4.80;;
62798;SDS011;48842;51.046;13.796;2023-06-01T04:06:13;8.33;;;4.10;;
62798;SDS011;48842;51.046;13.796;2023-06-01T04:08:42;5.30;;;4.17;;
62798;SDS011;48842;51.046;13.796;2023-06-01T04:11:13;8.27;;;4.57;;
62798;SDS011;48842;51.046;13.796;2023-06-01T04:13:38;8.67;;;5.00;;
62798;SDS011;48842;51.046;13.796;2023-06-01T04:16:04;8.23;;;5.20;;
62798;SDS011;48842;51.046;13.796;2023-06-01T04:18:29;5.00;;;4.03;;
62798;SDS011;48842;51.046;13.796;2023-06-01T04:20:55;8.87;;;5.10;;
62798;SDS011;48842;51.046;13.796;2023-06-01T04:23:21;10.93;;;5.50;;
62798;SDS011;48842;51.046;13.796;2023-06-01T04:25:47;7.00;;;5.50;;
62798;SDS011;48842;51.046;13.796;2023-06-01T04:28:15;8.07;;;5.57;;
62798;SDS011;48842;51.046;13.796;2023-06-01T04:30:41;5.70;;;4.63;;
62798;SDS011;48842;51.046;13.796;2023-06-01T04:33:09;5.60;;;4.43;;
62798;SDS011;48842;51.046;13.796;2023-06-01T04:35:35;5.73;;;4.83;;
62798;SDS011;48842;51.046;13.796;2023-06-01T04:38:02;8.07;;;5.13;;
62798;SDS011;48842;51.046;13.796;2023-06-01T04:40:27;8.03;;;4.13;;
62798;SDS011;48842;51.046;13.796;2023-06-01T04:42:52;11.37;;;4.67;;
62798;SDS011;48842;51.046;13.796;2023-06-01T04:45:20;8.27;;;4.63;;
62798;SDS011;48842;51.046;13.796;2023-06-01T04:47:46;4.87;;;4.30;;
62798;SDS011;48842;51.046;13.796;2023-06-01T04:50:13;12.43;;;4.57;;
62798;SDS011;48842;51.046;13.796;2023-06-01T04:52:40;7.40;;;4.27;;
62798;SDS011;48842;51.046;13.796;2023-06-01T04:55:07;8.87;;;4.80;;
62798;SDS011;48842;51.046;13.796;2023-06-01T04:57:34;12.33;;;4.73;;
62798;SDS011;48842;51.046;13.796;2023-06-01T05:00:09;9.57;;;4.53;;
62798;SDS011;48842;51.046;13.796;2023-06-01T05:02:41;10.13;;;4.60;;
62798;SDS011;48842;51.046;13.796;2023-06-01T05:05:11;10.00;;;4.73;;
62798;SDS011;48842;51.046;13.796;2023-06-01T05:07:37;12.80;;;4.20;;
62798;SDS011;48842;51.046;13.796;2023-06-01T05:10:04;4.90;;;4.27;;
62798;SDS011;48842;51.046;13.796;2023-06-01T05:12:31;6.47;;;4.00;;
62798;SDS011;48842;51.046;13.796;2023-06-01T05:14:57;10.40;;;3.80;;
62798;SDS011;48842;51.046;13.796;2023-06-01T05:17:22;4.77;;;3.80;;
62798;SDS011;48842;51.046;13.796;2023-06-01T05:19:47;7.10;;;5.10;;
62798;SDS011;48842;51.046;13.796;2023-06-01T05:22:12;8.00;;;4.70;;
62798;SDS011;48842;51.046;13.796;2023-06-01T05:24:38;6.67;;;4.20;;
62798;SDS011;48842;51.046;13.796;2023-06-01T05:27:04;12.43;;;4.30;;
62798;SDS011;48842;51.046;13.796;2023-06-01T05:29:29;6.33;;;3.53;;
62798;SDS011;48842;51.046;13.796;2023-06-01T05:31:55;4.50;;;4.10;;
62798;SDS011;48842;51.046;13.796;2023-06-01T05:34:20;20.23;;;4.63;;
62798;SDS011;48842;51.046;13.796;2023-06-01T05:36:45;13.63;;;4.03;;
62798;SDS011;48842;51.046;13.796;2023-06-01T05:39:11;9.27;;;4.47;;
62798;SDS011;48842;51.046;13.796;2023-06-01T05:41:36;16.43;;;4.37;;
62798;SDS011;48842;51.046;13.796;2023-06-01T05:44:01;7.43;;;4.47;;
62798;SDS011;48842;51.046;13.796;2023-06-01T05:46:27;5.43;;;4.53;;
62798;SDS011;48842;51.046;13.796;2023-06-01T05:48:52;13.20;;;4.60;;
62798;SDS011;48842;51.046;13.796;2023-06-01T05:51:17;9.73;;;4.50;;
62798;SDS011;48842;51.046;13.796;2023-06-01T05:53:42;9.60;;;4.47;;
62798;SDS011;48842;51.046;13.796;2023-06-01T05:56:08;8.60;;;4.73;;
62798;SDS011;48842;51.046;13.796;2023-06-01T05:58:33;4.87;;;4.17;;
62798;SDS011;48842;51.046;13.796;2023-06-01T06:00:58;7.10;;;3.90;;
62798;SDS011;48842;51.046;13.796;2023-06-01T06:03:24;9.40;;;4.57;;
62798;SDS011;48842;51.046;13.796;2023-06-01T06:05:49;11.77;;;5.13;;
62798;SDS011;48842;51.046;13.796;2023-06-01T06:08:14;6.17;;;4.47;;
62798;SDS011;48842;51.046;13.796;2023-06-01T06:10:40;11.10;;;4.73;;
62798;SDS011;48842;51.046;13.796;2023-06-01T06:13:06;6.90;;;4.30;;
62798;SDS011;48842;51.046;13.796;2023-06-01T06:15:31;18.00;;;4.37;;
62798;SDS011;48842;51.046;13.796;2023-06-01T06:17:56;8.83;;;4.40;;
62798;SDS011;48842;51.046;13.796;2023-06-01T06:20:22;7.10;;;4.37;;
62798;SDS011;48842;51.046;13.796;2023-06-01T06:22:50;14.33;;;5.07;;
62798;SDS011;48842;51.046;13.796;2023-06-01T06:25:16;12.30;;;4.47;;
62798;SDS011;48842;51.046;13.796;2023-06-01T06:27:41;6.50;;;3.97;;
62798;SDS011;48842;51.046;13.796;2023-06-01T06:30:07;17.07;;;5.40;;
62798;SDS011;48842;51.046;13.796;2023-06-01T06:32:32;11.37;;;4.47;;
62798;SDS011;48842;51.046;13.796;2023-06-01T06:34:58;14.43;;;4.50;;
62798;SDS011;48842;51.046;13.796;2023-06-01T06:37:23;9.87;;;4.57;;
62798;SDS011;48842;51.046;13.796;2023-06-01T06:39:48;13.83;;;5.90;;
62798;SDS011;48842;51.046;13.796;2023-06-01T06:42:13;10.30;;;4.50;;
62798;SDS011;48842;51.046;13.796;2023-06-01T06:44:39;15.03;;;5.33;;
62798;SDS011;48842;51.046;13.796;2023-06-01T06:47:04;13.00;;;4.67;;
62798;SDS011;48842;51.046;13.796;2023-06-01T06:49:30;12.83;;;4.97;;
62798;SDS011;48842;51.046;13.796;2023-06-01T06:51:55;9.70;;;3.90;;
62798;SDS011;48842;51.046;13.796;2023-06-01T06:54:21;11.13;;;4.50;;
62798;SDS011;48842;51.046;13.796;2023-06-01T06:56:46;9.40;;;4.60;;
62798;SDS011;48842;51.046;13.796;2023-06-01T06:59:12;8.73;;;3.90;;
62798;SDS011;48842;51.046;13.796;2023-06-01T07:01:37;22.17;;;3.57;;
62798;SDS011;48842;51.046;13.796;2023-06-01T07:04:04;9.33;;;4.47;;
62798;SDS011;48842;51.046;13.796;2023-06-01T07:06:32;11.60;;;3.50;;
62798;SDS011;48842;51.046;13.796;2023-06-01T07:08:58;15.67;;;4.80;;
62798;SDS011;48842;51.046;13.796;2023-06-01T07:11:24;17.17;;;3.93;;
62798;SDS011;48842;51.046;13.796;2023-06-01T07:13:51;12.13;;;4.60;;
62798;SDS011;48842;51.046;13.796;2023-06-01T07:16:17;15.33;;;3.60;;
62798;SDS011;48842;51.046;13.796;2023-06-01T07:18:42;11.40;;;4.27;;
62798;SDS011;48842;51.046;13.796;2023-06-01T07:21:07;11.63;;;4.40;;
62798;SDS011;48842;51.046;13.796;2023-06-01T07:23:32;8.90;;;3.90;;
62798;SDS011;48842;51.046;13.796;2023-06-01T07:25:58;4.70;;;4.20;;
62798;SDS011;48842;51.046;13.796;2023-06-01T07:28:23;6.43;;;4.20;;
62798;SDS011;48842;51.046;13.796;2023-06-01T07:30:51;11.70;;;4.27;;
62798;SDS011;48842;51.046;13.796;2023-06-01T07:33:17;8.20;;;3.90;;
62798;SDS011;48842;51.046;13.796;2023-06-01T07:35:42;9.20;;;4.20;;
62798;SDS011;48842;51.046;13.796;2023-06-01T07:38:08;9.43;;;4.67;;
62798;SDS011;48842;51.046;13.796;2023-06-01T07:40:34;7.47;;;4.00;;
62798;SDS011;48842;51.046;13.796;2023-06-01T07:42:59;12.93;;;4.33;;
62798;SDS011;48842;51.046;13.796;2023-06-01T07:45:24;10.13;;;4.17;;
62798;SDS011;48842;51.046;13.796;2023-06-01T07:47:50;18.83;;;4.17;;
62798;SDS011;48842;51.046;13.796;2023-06-01T07:50:16;15.30;;;4.17;;
62798;SDS011;48842;51.046;13.796;2023-06-01T07:52:41;10.10;;;4.27;;
62798;SDS011;48842;51.046;13.796;2023-06-01T07:55:06;8.67;;;5.37;;
62798;SDS011;48842;51.046;13.796;2023-06-01T07:57:34;9.00;;;4.20;;
62798;SDS011;48842;51.046;13.796;2023-06-01T07:59:59;11.87;;;4.67;;
62798;SDS011;48842;51.046;13.796;2023-06-01T08:02:24;6.80;;;4.50;;
62798;SDS011;48842;51.046;13.796;2023-06-01T08:04:51;9.17;;;4.30;;
62798;SDS011;48842;51.046;13.796;2023-06-01T08:07:17;8.20;;;4.20;;
62798;SDS011;48842;51.046;13.796;2023-06-01T08:09:43;19.80;;;4.57;;
62798;SDS011;48842;51.046;13.796;2023-06-01T08:12:09;9.63;;;4.73;;
62798;SDS011;48842;51.046;13.796;2023-06-01T08:14:36;5.83;;;3.90;;
62798;SDS011;48842;51.046;13.796;2023-06-01T08:17:02;10.47;;;4.50;;
62798;SDS011;48842;51.046;13.796;2023-06-01T08:19:28;8.40;;;4.30;;
62798;SDS011;48842;51.046;13.796;2023-06-01T08:21:53;9.50;;;4.60;;
62798;SDS011;48842;51.046;13.796;2023-06-01T08:24:19;6.97;;;4.13;;
62798;SDS011;48842;51.046;13.796;2023-06-01T08:26:47;11.77;;;4.57;;
62798;SDS011;48842;51.046;13.796;2023-06-01T08:29:13;18.83;;;4.50;;
62798;SDS011;48842;51.046;13.796;2023-06-01T08:31:38;7.40;;;3.77;;
62798;SDS011;48842;51.046;13.796;2023-06-01T08:34:03;4.77;;;3.40;;
62798;SDS011;48842;51.046;13.796;2023-06-01T08:36:29;8.20;;;4.87;;
62798;SDS011;48842;51.046;13.796;2023-06-01T08:38:54;8.30;;;4.50;;
62798;SDS011;48842;51.046;13.796;2023-06-01T08:41:25;7.80;;;4.80;;
62798;SDS011;48842;51.046;13.796;2023-06-01T08:44:02;9.07;;;3.97;;
62798;SDS011;48842;51.046;13.796;2023-06-01T08:46:28;7.50;;;3.90;;
62798;SDS011;48842;51.046;13.796;2023-06-01T08:48:56;13.87;;;4.13;;
62798;SDS011;48842;51.046;13.796;2023-06-01T08:51:23;7.40;;;3.50;;
62798;SDS011;48842;51.046;13.796;2023-06-01T08:53:49;6.47;;;3.53;;
62798;SDS011;48842;51.046;13.796;2023-06-01T08:56:15;14.73;;;3.97;;
62798;SDS011;48842;51.046;13.796;2023-06-01T08:58:41;10.03;;;3.70;;
62798;SDS011;48842;51.046;13.796;2023-06-01T09:01:08;11.37;;;3.50;;
62798;SDS011;48842;51.046;13.796;2023-06-01T09:03:34;12.80;;;3.57;;
62798;SDS011;48842;51.046;13.796;2023-06-01T09:05:59;3.40;;;3.03;;
62798;SDS011;48842;51.046;13.796;2023-06-01T09:08:25;9.83;;;3.23;;
62798;SDS011;48842;51.046;13.796;2023-06-01T09:10:50;7.23;;;4.20;;
62798;SDS011;48842;51.046;13.796;2023-06-01T09:13:33;10.50;;;3.60;;
62798;SDS011;48842;51.046;13.796;2023-06-01T09:16:00;7.03;;;3.90;;
62798;SDS011;48842;51.046;13.796;2023-06-01T09:18:25;6.53;;;3.57;;
62798;SDS011;48842;51.046;13.796;2023-06-01T09:20:50;5.73;;;3.20;;
62798;SDS011;48842;51.046;13.796;2023-06-01T09:23:24;3.93;;;3.00;;
62798;SDS011;48842;51.046;13.796;2023-06-01T09:26:07;4.77;;;3.30;;
62798;SDS011;48842;51.046;13.796;2023-06-01T09:28:51;6.93;;;3.70;;
62798;SDS011;48842;51.046;13.796;2023-06-01T09:31:39;4.20;;;3.40;;
62798;SDS011;48842;51.046;13.796;2023-06-01T09:34:07;4.50;;;3.07;;
62798;SDS011;48842;51.046;13.796;2023-06-01T09:36:33;9.93;;;3.83;;
62798;SDS011;48842;51.046;13.796;2023-06-01T09:39:08;5.10;;;2.97;;
62798;SDS011;48842;51.046;13.796;2023-06-01T09:41:51;2.70;;;2.10;;
62798;SDS011;48842;51.046;13.796;2023-06-01T09:44:24;8.40;;;3.20;;
62798;SDS011;48842;51.046;13.796;2023-06-01T09:47:09;9.43;;;3.07;;
62798;SDS011;48842;51.046;13.796;2023-06-01T09:49:37;9.23;;;3.17;;
62798;SDS011;48842;51.046;13.796;2023-06-01T09:54:33;8.27;;;2.90;;
62798;SDS011;48842;51.046;13.796;2023-06-01T09:57:02;16.27;;;2.83;;
62798;SDS011;48842;51.046;13.796;2023-06-01T09:59:29;7.70;;;3.10;;
62798;SDS011;48842;51.046;13.796;2023-06-01T10:02:01;7.03;;;3.27;;
62798;SDS011;48842;51.046;13.796;2023-06-01T10:04:29;5.70;;;2.87;;
62798;SDS011;48842;51.046;13.796;2023-06-01T10:06:55;4.90;;;2.60;;
62798;SDS011;48842;51.046;13.796;2023-06-01T10:09:22;4.30;;;2.90;;
62798;SDS011;48842;51.046;13.796;2023-06-01T10:11:51;7.83;;;3.10;;
62798;SDS011;48842;51.046;13.796;2023-06-01T10:14:18;8.30;;;3.80;;
62798;SDS011;48842;51.046;13.796;2023-06-01T10:16:45;7.40;;;3.73;;
62798;SDS011;48842;51.046;13.796;2023-06-01T10:19:13;10.80;;;2.67;;
62798;SDS011;48842;51.046;13.796;2023-06-01T10:21:39;3.73;;;2.50;;
62798;SDS011;48842;51.046;13.796;2023-06-01T10:24:05;5.03;;;3.50;;
62798;SDS011;48842;51.046;13.796;2023-06-01T10:26:36;12.03;;;3.53;;
62798;SDS011;48842;51.046;13.796;2023-06-01T10:29:06;8.47;;;2.70;;
62798;SDS011;48842;51.046;13.796;2023-06-01T10:31:36;5.73;;;3.10;;
62798;SDS011;48842;51.046;13.796;2023-06-01T10:34:04;11.80;;;3.40;;
62798;SDS011;48842;51.046;13.796;2023-06-01T10:39:24;5.30;;;3.00;;
62798;SDS011;48842;51.046;13.796;2023-06-01T10:41:57;10.50;;;3.20;;
62798;SDS011;48842;51.046;13.796;2023-06-01T10:47:43;16.17;;;3.13;;
62798;SDS011;48842;51.046;13.796;2023-06-01T10:54:49;10.57;;;3.93;;
62798;SDS011;48842;51.046;13.796;2023-06-01T10:57:18;5.10;;;3.23;;
62798;SDS011;48842;51.046;13.796;2023-06-01T11:02:46;9.53;;;3.50;;
62798;SDS011;48842;51.046;13.796;2023-06-01T11:05:41;6.10;;;3.83;;
62798;SDS011;48842;51.046;13.796;2023-06-01T11:13:15;6.87;;;2.63;;
62798;SDS011;48842;51.046;13.796;2023-06-01T11:16:10;7.60;;;3.60;;
62798;SDS011;48842;51.046;13.796;2023-06-01T11:21:10;3.77;;;2.80;;
62798;SDS011;48842;51.046;13.796;2023-06-01T11:23:42;6.67;;;2.90;;
62798;SDS011;48842;51.046;13.796;2023-06-01T11:26:12;13.17;;;3.43;;
62798;SDS011;48842;51.046;13.796;2023-06-01T11:28:40;6.53;;;2.97;;
62798;SDS011;48842;51.046;13.796;2023-06-01T11:31:09;4.10;;;2.70;;
62798;SDS011;48842;51.046;13.796;2023-06-01T11:33:35;6.07;;;2.73;;
62798;SDS011;48842;51.046;13.796;2023-06-01T11:36:03;3.70;;;2.97;;
62798;SDS011;48842;51.046;13.796;2023-06-01T11:38:34;13.23;;;3.30;;
62798;SDS011;48842;51.046;13.796;2023-06-01T11:41:03;8.70;;;3.27;;
62798;SDS011;48842;51.046;13.796;2023-06-01T11:43:29;5.43;;;2.90;;
62798;SDS011;48842;51.046;13.796;2023-06-01T11:46:05;6.30;;;3.30;;
62798;SDS011;48842;51.046;13.796;2023-06-01T11:48:32;4.20;;;3.70;;
62798;SDS011;48842;51.046;13.796;2023-06-01T11:51:02;11.53;;;3.60;;
62798;SDS011;48842;51.046;13.796;2023-06-01T11:53:29;5.77;;;3.30;;
62798;SDS011;48842;51.046;13.796;2023-06-01T11:55:56;8.93;;;3.60;;
62798;SDS011;48842;51.046;13.796;2023-06-01T11:58:26;6.30;;;3.73;;
62798;SDS011;48842;51.046;13.796;2023-06-01T12:00:53;6.80;;;3.60;;
62798;SDS011;48842;51.046;13.796;2023-06-01T12:03:19;13.67;;;3.43;;
62798;SDS011;48842;51.046;13.796;2023-06-01T12:05:45;8.10;;;3.60;;
62798;SDS011;48842;51.046;13.796;2023-06-01T12:08:14;6.20;;;3.37;;
62798;SDS011;48842;51.046;13.796;2023-06-01T12:10:42;16.73;;;3.20;;
62798;SDS011;48842;51.046;13.796;2023-06-01T12:13:09;9.43;;;3.83;;
62798;SDS011;48842;51.046;13.796;2023-06-01T12:15:35;6.20;;;3.63;;
62798;SDS011;48842;51.046;13.796;2023-06-01T12:18:01;5.50;;;3.43;;
62798;SDS011;48842;51.046;13.796;2023-06-01T12:20:27;11.37;;;3.77;;
62798;SDS011;48842;51.046;13.796;2023-06-01T12:22:53;5.63;;;3.33;;
62798;SDS011;48842;51.046;13.796;2023-06-01T12:25:20;5.63;;;3.43;;
62798;SDS011;48842;51.046;13.796;2023-06-01T12:28:02;3.90;;;3.27;;
62798;SDS011;48842;51.046;13.796;2023-06-01T12:30:29;7.70;;;3.83;;
62798;SDS011;48842;51.046;13.796;2023-06-01T12:32:55;7.27;;;3.40;;
62798;SDS011;48842;51.046;13.796;2023-06-01T12:35:20;4.50;;;3.97;;
62798;SDS011;48842;51.046;13.796;2023-06-01T12:38:04;5.50;;;3.50;;
62798;SDS011;48842;51.046;13.796;2023-06-01T12:40:31;8.53;;;4.10;;
62798;SDS011;48842;51.046;13.796;2023-06-01T12:42:56;11.97;;;4.23;;
62798;SDS011;48842;51.046;13.796;2023-06-01T12:45:22;5.73;;;3.90;;
62798;SDS011;48842;51.046;13.796;2023-06-01T12:47:47;4.80;;;3.50;;
62798;SDS011;48842;51.046;13.796;2023-06-01T12:50:13;4.87;;;3.90;;
62798;SDS011;48842;51.046;13.796;2023-06-01T12:52:39;7.10;;;4.13;;
62798;SDS011;48842;51.046;13.796;2023-06-01T12:55:05;5.83;;;5.03;;
62798;SDS011;48842;51.046;13.796;2023-06-01T12:57:31;7.13;;;4.53;;
62798;SDS011;48842;51.046;13.796;2023-06-01T12:59:57;7.07;;;4.70;;
62798;SDS011;48842;51.046;13.796;2023-06-01T13:02:23;5.63;;;5.03;;
62798;SDS011;48842;51.046;13.796;2023-06-01T13:04:49;8.93;;;5.00;;
62798;SDS011;48842;51.046;13.796;2023-06-01T13:07:14;9.13;;;4.80;;
62798;SDS011;48842;51.046;13.796;2023-06-01T13:09:40;10.30;;;4.57;;
62798;SDS011;48842;51.046;13.796;2023-06-01T13:12:05;5.90;;;4.67;;
62798;SDS011;48842;51.046;13.796;2023-06-01T13:14:31;10.00;;;4.67;;
62798;SDS011;48842;51.046;13.796;2023-06-01T13:16:56;7.37;;;4.60;;
62798;SDS011;48842;51.046;13.796;2023-06-01T13:19:21;5.50;;;4.60;;
62798;SDS011;48842;51.046;13.796;2023-06-01T13:21:50;7.60;;;5.10;;
62798;SDS011;48842;51.046;13.796;2023-06-01T13:24:15;6.73;;;4.63;;
62798;SDS011;48842;51.046;13.796;2023-06-01T13:26:41;8.77;;;5.60;;
62798;SDS011;48842;51.046;13.796;2023-06-01T13:29:07;8.33;;;5.20;;
62798;SDS011;48842;51.046;13.796;2023-06-01T13:31:32;8.40;;;4.63;;
62798;SDS011;48842;51.046;13.796;2023-06-01T13:34:00;6.40;;;4.70;;
62798;SDS011;48842;51.046;13.796;2023-06-01T13:36:25;9.47;;;4.50;;
62798;SDS011;48842;51.046;13.796;2023-06-01T13:38:51;7.07;;;4.50;;
62798;SDS011;48842;51.046;13.796;2023-06-01T13:41:16;4.67;;;4.20;;
62798;SDS011;48842;51.046;13.796;2023-06-01T13:43:41;8.30;;;4.80;;
62798;SDS011;48842;51.046;13.796;2023-06-01T13:46:07;8.20;;;4.20;;
62798;SDS011;48842;51.046;13.796;2023-06-01T13:48:35;4.77;;;4.30;;
62798;SDS011;48842;51.046;13.796;2023-06-01T13:51:01;6.43;;;4.23;;
62798;SDS011;48842;51.046;13.796;2023-06-01T13:53:26;9.17;;;4.13;;
62798;SDS011;48842;51.046;13.796;2023-06-01T13:55:51;6.17;;;4.40;;
62798;SDS011;48842;51.046;13.796;2023-06-01T13:58:17;9.37;;;4.73;;
62798;SDS011;48842;51.046;13.796;2023-06-01T14:00:42;14.83;;;5.30;;
62798;SDS011;48842;51.046;13.796;2023-06-01T14:03:07;5.23;;;4.13;;
62798;SDS011;48842;51.046;13.796;2023-06-01T14:05:32;11.13;;;5.03;;
62798;SDS011;48842;51.046;13.796;2023-06-01T14:07:58;5.40;;;4.53;;
62798;SDS011;48842;51.046;13.796;2023-06-01T14:10:23;10.53;;;5.10;;
62798;SDS011;48842;51.046;13.796;2023-06-01T14:12:48;6.97;;;4.40;;
62798;SDS011;48842;51.046;13.796;2023-06-01T14:15:13;12.83;;;4.73;;
62798;SDS011;48842;51.046;13.796;2023-06-01T14:17:39;6.07;;;5.47;;
62798;SDS011;48842;51.046;13.796;2023-06-01T14:20:04;9.10;;;5.43;;
62798;SDS011;48842;51.046;13.796;2023-06-01T14:22:30;5.37;;;4.97;;
62798;SDS011;48842;51.046;13.796;2023-06-01T14:24:55;7.50;;;5.37;;
62798;SDS011;48842;51.046;13.796;2023-06-01T14:27:20;7.17;;;5.63;;
62798;SDS011;48842;51.046;13.796;2023-06-01T14:29:46;10.50;;;5.57;;
62798;SDS011;48842;51.046;13.796;2023-06-01T14:32:11;11.90;;;5.93;;
62798;SDS011;48842;51.046;13.796;2023-06-01T14:34:36;8.90;;;5.10;;
62798;SDS011;48842;51.046;13.796;2023-06-01T14:37:01;7.07;;;5.57;;
62798;SDS011;48842;51.046;13.796;2023-06-01T14:39:29;7.13;;;5.00;;
62798;SDS011;48842;51.046;13.796;2023-06-01T14:41:54;12.63;;;5.40;;
62798;SDS011;48842;51.046;13.796;2023-06-01T14:44:20;10.40;;;5.23;;
62798;SDS011;48842;51.046;13.796;2023-06-01T14:46:45;24.23;;;4.90;;
62798;SDS011;48842;51.046;13.796;2023-06-01T14:49:10;7.70;;;4.43;;
62798;SDS011;48842;51.046;13.796;2023-06-01T14:51:36;4.67;;;4.27;;
62798;SDS011;48842;51.046;13.796;2023-06-01T14:54:01;9.27;;;5.60;;
62798;SDS011;48842;51.046;13.796;2023-06-01T14:56:27;6.13;;;4.50;;
62798;SDS011;48842;51.046;13.796;2023-06-01T14:58:52;5.97;;;4.73;;
62798;SDS011;48842;51.046;13.796;2023-06-01T15:01:18;6.80;;;4.77;;
62798;SDS011;48842;51.046;13.796;2023-06-01T15:03:44;7.17;;;4.60;;